WEATHER DATA

YESTERDAY
Time Temp. Dewp. Hum. Wind dir Wind speed Wind gust Bar. 1h Prec. 24h Prec.
00:02 9.6 6.7 82 225 0.6 1.4 1007.7 0.3200 0.0000
00:12 9.3 6.4 82 257 0.8 1.9 1007.8 0.3200 0.0000
00:22 9 6.3 83 210 0.6 1.7 1008.1 0.3200 0.0000
00:32 8.6 6.1 84 270 0.8 2.2 1008.1 0.3200 0.2000
00:42 8.4 6 85 253 0.6 1.4 1008.2 0.3200 0.3000
00:47 8.2 6 86 249 0.6 1.7 1008.2 0.4800 0.5000
00:56 8 6 87 243 0.6 1.1 1008.6 0.6400 0.6000
01:06 7.8 5.8 87 225 0.3 0.8 1008.7 0.9610 1.0000
01:16 7.7 5.8 88 249 0.6 1.7 1008.9 1.1210 1.1000
01:27 7.6 5.9 89 270 0.6 1.9 1008.9 1.1210 1.3000
01:36 7.5 5.8 89 286 0.8 1.9 1009.1 1.1210 1.4000
01:46 7.4 5.7 89 243 1.1 2.5 1009.2 0.8010 1.4000
01:57 7 5.3 89 286 0.8 3.3 1009.3 0.4800 1.4000
02:07 6.8 5.1 89 225 0.6 2.2 1009.3 0.4800 1.4000
02:17 6.7 5 89 270 0.6 2.2 1009.5 0.1600 1.4000
02:27 6.6 4.8 88 300 0.6 1.1 1009.5 0.0000 1.4000
02:37 6.5 4.7 88 338 0.3 0.8 1009.6 0.0000 1.4000
02:47 6.5 4.7 88 307 0.3 0.8 1009.7 0.0000 1.4000
02:57 6.4 4.6 88 315 0.3 0.8 1009.7 0.1600 1.6000
03:07 6.4 4.6 88 0.3 0.6 1009.8 0.1600 1.6000
03:17 6.3 4.5 88 270 0.3 0.8 1009.9 0.1600 1.6000
03:27 6.2 4.4 88 215 0.8 1.4 1009.9 0.1600 1.6000
03:37 6.2 4.5 89 221 0.8 1.4 1010 0.1600 1.6000
03:47 6.2 4.5 89 202 1.1 1.9 1010 0.0000 1.6000
03:57 6.1 4.4 89 205 1.4 2.2 1010 0.1600 1.8000
04:07 6.1 4.4 89 201 1.7 2.8 1010 0.1600 1.8000
04:18 6.1 4.4 89 206 1.1 2.2 1010 0.1600 1.8000
04:27 6 4.3 89 216 0.6 1.1 1010.2 0.1600 1.8000
04:37 6 4.3 89 225 0.6 1.7 1010.2 0.1600 1.8000
04:47 6 4.5 90 216 0.8 1.4 1010.2 0.0000 1.8000
04:58 5.9 4.2 89 218 1.1 2.2 1010.3 0.0000 1.8000
05:08 5.8 4.3 90 223 0.6 1.1 1010.3 0.0000 1.8000
05:17 5.9 4.4 90 217 0.6 1.1 1010.5 0.0000 1.8000
05:28 5.8 4.3 90 218 0.6 0.8 1010.5 0.0000 1.8000
05:38 5.8 4.3 90 202 0.3 0.6 1010.7 0.0000 1.8000
05:48 5.9 4.5 91 214 0.6 1.1 1010.8 0.0000 1.8000
05:58 6 4.6 91 225 0.6 1.1 1011 0.0000 1.8000
06:08 6.1 4.6 90 225 0.6 0.8 1011 0.0000 1.8000
06:18 6.1 4.6 90 225 0.3 0.8 1011.1 0.0000 1.8000
06:28 6.2 4.7 90 229 0.6 1.1 1011.3 0.0000 1.8000
06:38 6.2 4.7 90 270 0.3 0.8 1011.4 0.0000 1.8000
06:48 6.2 4.7 90 223 0.8 1.4 1011.5 0.0000 1.8000
06:58 6.1 4.6 90 222 0.8 2.2 1011.7 0.0000 1.8000
07:08 6.1 4.6 90 214 0.6 1.4 1011.9 0.0000 1.8000
07:19 6 4.5 90 219 0.6 1.4 1012 0.0000 1.8000
07:28 6.1 4.4 89 203 0.8 1.9 1012.1 0.0000 1.8000
07:38 6.1 4.4 89 222 1.7 3.1 1012.3 0.0000 1.8000
07:49 6.2 4.4 88 222 1.9 4.4 1012.5 0.0000 1.8000
07:59 6.2 4.2 87 227 1.7 3.6 1012.6 0.0000 1.8000
08:08 6.3 4.1 86 228 1.9 3.9 1012.6 0.0000 1.8000
08:19 6.5 4.3 86 221 1.9 5.3 1012.8 0.0000 1.8000
08:29 6.7 4.4 85 225 1.9 4.2 1013 0.0000 1.8000
08:39 6.9 3.9 81 219 2.5 6.7 1013.1 0.0000 1.8000
08:48 7 4 81 227 1.4 3.1 1013.1 0.0000 1.8000
08:59 6.9 3.9 81 235 1.4 3.3 1013.4 0.0000 1.8000
09:09 6.9 3.7 80 230 1.9 3.3 1013.5 0.0000 1.8000
09:19 6.9 3.7 80 228 1.4 2.8 1013.7 0.0000 1.8000
09:29 7 3.8 80 231 1.1 3.9 1014 0.0000 1.8000
09:39 7.3 4.3 81 200 0.8 3.1 1014.1 0.0000 1.8000
09:49 7.7 4.5 80 209 0.8 3.3 1014.2 0.0000 1.8000
09:59 8.1 4.5 78 302 0.6 1.7 1014.2 0.0000 1.8000
10:09 8.4 4.6 77 258 0.8 1.7 1014.3 0.0000 1.8000
10:19 8.7 4.9 77 230 0.6 1.9 1014.3 0.0000 1.8000
10:29 9.2 5.4 77 219 0.6 1.9 1014.4 0.0000 1.8000
10:40 9.4 5 74 270 0.6 1.7 1014.2 0.0000 1.8000
10:50 10 5.6 74 161 0.6 1.7 1014.3 0.0000 1.8000
10:59 10.2 5 70 281 1.1 3.3 1014.5 0.0000 1.8000
11:09 10.3 5.1 70 248 0.6 2.8 1014.5 0.0000 1.8000
11:20 10.7 5 68 220 1.4 3.6 1014.7 0.0000 1.8000
11:30 10.9 5 67 225 1.1 5 1014.8 0.0000 1.8000
11:35 11.2 5.1 66 213 1.4 7.5 1014.7 0.0000 1.8000
11:45 11.5 4.9 64 156 0.6 2.2 1014.8 0.0000 1.8000
11:55 11.7 4.7 62 228 1.1 3.9 1014.9 0.0000 1.8000
12:05 12 5 62 214 0.8 4.4 1015 0.0000 1.8000
12:15 12.3 4.8 60 212 1.7 6.1 1015.1 0.0000 1.8000
12:25 12.3 4 57 222 2.5 5.6 1015 0.0000 1.8000
12:43 12.7 4.7 58 225 1.1 5.8 1015.1 0.0000 1.8000
12:52 12.7 4.4 57 235 0.6 1.9 1015 0.0000 1.8000
13:02 13.1 4.3 55 225 1.1 2.5 1014.9 0.0000 1.8000
13:12 13.5 5.2 57 203 0.6 1.9 1014.9 0.0000 1.8000
13:23 13.5 4.1 53 225 1.4 3.9 1014.9 0.0000 1.8000
13:33 13.5 4.4 54 236 0.6 1.4 1014.9 0.0000 1.8000
13:42 13.6 4.2 53 225 1.1 2.5 1015 0.0000 1.8000
13:53 13.6 3.7 51 229 1.9 6.4 1014.9 0.0000 1.8000
14:03 14.1 4.1 51 227 0.8 1.9 1015 0.0000 1.8000
14:12 14 3.5 49 232 1.7 4.4 1015 0.0000 1.8000
14:23 13.9 3.7 50 234 0.3 1.9 1015 0.0000 1.8000
14:33 13.8 3.3 49 222 0.8 5 1014.9 0.0000 1.8000
14:43 14.1 3.3 48 155 0.6 3.1 1014.9 0.0000 1.8000
14:53 14.3 3.2 47 218 0.8 3.1 1014.8 0.0000 1.8000
15:03 14.3 3.2 47 245 0.8 3.1 1015 0.0000 1.8000
15:13 14.5 3.3 47 211 0.6 2.8 1014.9 0.0000 1.8000
15:16 14.5 2.7 45 223 1.4 7.2 1014.9 0.0000 1.8000
15:26 14.4 2.9 46 218 1.1 3.1 1015 0.0000 1.8000
15:36 14.5 2.7 45 230 0.8 3.1 1014.9 0.0000 1.8000
15:45 14.4 2.6 45 208 1.1 3.1 1015.2 0.0000 1.8000
15:56 14.3 2.8 46 237 0.8 1.9 1015.1 0.0000 1.8000
16:06 14.3 2.8 46 222 0.6 1.9 1015 0.0000 1.8000
16:16 14.6 2.8 45 220 1.4 5.6 1014.9 0.0000 1.8000
16:26 14.8 2.7 44 319 0.8 2.5 1014.9 0.0000 1.8000
16:36 15.1 3.3 45 205 0.8 2.2 1014.8 0.0000 1.8000
16:46 15.1 1.6 40 222 1.1 4.4 1014.7 0.0000 1.8000
16:56 15.1 2.6 43 248 0.6 2.8 1014.5 0.0000 1.8000
17:06 15.1 2 41 221 1.7 4.4 1014.5 0.0000 1.8000
17:19 15.1 2.6 43 231 0.8 5 1014.7 0.0000 1.8000
17:29 15.2 2.4 42 209 1.1 4.2 1014.7 0.0000 1.8000
17:39 14.8 2.4 43 211 1.7 5 1014.7 0.0000 1.8000
17:49 14.8 2.4 43 228 2.2 5 1014.5 0.0000 1.8000
17:59 15.2 3 44 217 1.1 3.6 1014.7 0.0000 1.8000
18:09 15.3 2.8 43 218 1.1 2.2 1014.5 0.0000 1.8000
18:19 15.3 2.8 43 227 0.8 2.2 1014.5 0.0000 1.8000
18:29 15.2 2 41 222 2.2 5 1014.3 0.0000 1.8000
18:39 15.2 2 41 225 2.5 5.8 1014.1 0.0000 1.8000
18:49 15.1 2 41 228 2.5 5.8 1014 0.0000 1.8000
18:59 15.1 2.3 42 229 1.9 4.7 1014 0.0000 1.8000
19:10 15.3 2.8 43 227 1.7 4.2 1014 0.0000 1.8000
19:19 15 2.9 44 225 2.5 5.8 1014 0.0000 1.8000
19:29 14.8 3 45 227 3.3 6.1 1013.8 0.0000 1.8000
19:40 14.8 3.3 46 234 1.7 4.7 1014 0.0000 1.8000
19:50 14.8 3.3 46 222 1.7 5 1014.2 0.0000 1.8000
19:59 14.6 3.4 47 226 1.4 4.2 1014.2 0.0000 1.8000
20:09 14.5 3.3 47 221 1.4 5.3 1014.2 0.0000 1.8000
20:20 14.5 3 46 224 2.2 5.6 1014.1 0.0000 1.8000
20:30 14.4 2.9 46 216 1.9 4.2 1014.2 0.0000 1.8000
20:39 14.4 2.6 45 223 2.8 6.1 1014.3 0.0000 1.8000
20:50 14.3 2.8 46 218 2.8 7.8 1014.3 0.0000 1.8000
21:00 14.3 3.2 47 220 2.2 6.4 1014.3 0.0000 1.8000
21:10 14.2 3.4 48 225 2.2 4.2 1014.2 0.0000 1.8000
21:20 14.1 3.3 48 226 2.5 4.4 1014.3 0.0000 1.8000
21:30 14 3.2 48 220 2.8 6.9 1014.5 0.0000 1.8000
21:40 14 3.5 49 218 1.9 5 1014.5 0.0000 1.8000
21:50 13.9 3.4 49 223 2.8 7.2 1014.6 0.0000 1.8000
22:00 13.9 3.7 50 221 1.7 3.6 1014.7 0.0000 1.8000
22:10 13.7 3.5 50 217 1.1 3.6 1014.8 0.0000 1.8000
22:20 13.7 3.8 51 223 1.4 3.1 1014.6 0.0000 1.8000
22:30 13.6 3.7 51 223 1.7 4.7 1014.6 0.0000 1.8000
22:41 13.5 3.6 51 227 1.7 4.2 1014.5 0.0000 1.8000
22:50 13.3 3.7 52 227 2.2 4.4 1014.6 0.0000 1.8000
23:00 13.1 3.7 53 224 1.9 3.3 1014.7 0.0000 1.8000
23:11 13 3.7 53 227 1.4 2.5 1014.7 0.0000 1.8000
23:21 12.9 3.6 53 225 0.8 2.2 1014.7 0.0000 1.8000
23:30 12.9 3.3 52 226 1.4 3.6 1015 0.0000 1.8000
23:41 12.9 3.3 52 225 0.8 3.1 1015.1 0.0000 1.8000
23:51 12.9 3.3 52 223 1.1 4.4 1014.9 0.0000 1.8000

DAY STATISTIC

2021-05-11
TEMPERATURE
AVERAGE
10.7
HIGH
15.3
18:09
LOW
5.8
05:08
PRESSURE
AVERAGE
1013.0
HIGH
1015.2
15:45
LOW
1007.7
00:02
DEWPOINT
AVERAGE
4.0
HIGH
6.7
00:02
LOW
1.6
16:46
HUMIDITY
AVERAGE
66
HIGH
91
05:48
LOW
40
16:46
WIND SPEED
AVERAGE
1.2
HIGH
3.3
19:29
WIND GUST
AVERAGE
3.2
HIGH
7.8
20:50
WIND DIRECTION
PREVAILING
SW
77.8%
N
0.7
NE
0.0
E
0.0
SE
1.4
S
4.9
SW
77.8
W
11.1
NW
3.5
PRECIPITATION
RAIN HOUR
1.1
RAIN DAY
1.8
TEMPERATURE (°C)
LOW
5.8
HIGH
15.3
AVERAGE
10.7
PRESSURE (hpa)
LOW
1007.7
HIGH
1015.2
AVERAGE
1013.0
DEVICE